sensor_id;sensor_type;location;lat;lon;timestamp;P1;durP1;ratioP1;P2;durP2;ratioP2
3095;SDS011;1558;42.700;23.360;2023-03-20T00:02:00;39.40;;;32.23;;
3095;SDS011;1558;42.700;23.360;2023-03-20T00:04:40;39.57;;;32.03;;
3095;SDS011;1558;42.700;23.360;2023-03-20T00:07:24;42.77;;;32.93;;
3095;SDS011;1558;42.700;23.360;2023-03-20T00:10:14;41.47;;;30.50;;
3095;SDS011;1558;42.700;23.360;2023-03-20T00:12:43;41.57;;;30.33;;
3095;SDS011;1558;42.700;23.360;2023-03-20T00:15:16;42.47;;;30.17;;
3095;SDS011;1558;42.700;23.360;2023-03-20T00:17:52;39.40;;;31.37;;
3095;SDS011;1558;42.700;23.360;2023-03-20T00:20:22;43.27;;;32.43;;
3095;SDS011;1558;42.700;23.360;2023-03-20T00:22:51;40.03;;;31.23;;
3095;SDS011;1558;42.700;23.360;2023-03-20T00:25:21;38.70;;;30.23;;
3095;SDS011;1558;42.700;23.360;2023-03-20T00:27:51;42.63;;;33.60;;
3095;SDS011;1558;42.700;23.360;2023-03-20T00:30:20;44.37;;;31.60;;
3095;SDS011;1558;42.700;23.360;2023-03-20T00:32:51;45.20;;;34.93;;
3095;SDS011;1558;42.700;23.360;2023-03-20T00:35:20;46.53;;;34.47;;
3095;SDS011;1558;42.700;23.360;2023-03-20T00:37:51;62.50;;;41.83;;
3095;SDS011;1558;42.700;23.360;2023-03-20T00:40:21;53.43;;;38.57;;
3095;SDS011;1558;42.700;23.360;2023-03-20T00:42:55;49.90;;;36.17;;
3095;SDS011;1558;42.700;23.360;2023-03-20T00:45:26;46.50;;;34.77;;
3095;SDS011;1558;42.700;23.360;2023-03-20T00:47:55;46.10;;;34.43;;
3095;SDS011;1558;42.700;23.360;2023-03-20T00:50:24;45.57;;;31.87;;
3095;SDS011;1558;42.700;23.360;2023-03-20T00:52:55;44.27;;;31.60;;
3095;SDS011;1558;42.700;23.360;2023-03-20T00:55:26;44.77;;;32.37;;
3095;SDS011;1558;42.700;23.360;2023-03-20T00:57:56;43.90;;;33.10;;
3095;SDS011;1558;42.700;23.360;2023-03-20T01:03:14;48.57;;;37.13;;
3095;SDS011;1558;42.700;23.360;2023-03-20T01:05:44;51.03;;;36.27;;
3095;SDS011;1558;42.700;23.360;2023-03-20T01:08:13;43.60;;;33.60;;
3095;SDS011;1558;42.700;23.360;2023-03-20T01:10:44;47.73;;;32.70;;
3095;SDS011;1558;42.700;23.360;2023-03-20T01:13:16;48.13;;;33.10;;
3095;SDS011;1558;42.700;23.360;2023-03-20T01:15:47;42.20;;;32.03;;
3095;SDS011;1558;42.700;23.360;2023-03-20T01:18:17;48.53;;;35.67;;
3095;SDS011;1558;42.700;23.360;2023-03-20T01:20:46;43.73;;;33.10;;
3095;SDS011;1558;42.700;23.360;2023-03-20T01:23:14;40.20;;;31.87;;
3095;SDS011;1558;42.700;23.360;2023-03-20T01:25:44;48.17;;;33.93;;
3095;SDS011;1558;42.700;23.360;2023-03-20T01:28:13;50.33;;;38.10;;
3095;SDS011;1558;42.700;23.360;2023-03-20T01:30:43;54.10;;;38.33;;
3095;SDS011;1558;42.700;23.360;2023-03-20T01:33:13;47.87;;;34.70;;
3095;SDS011;1558;42.700;23.360;2023-03-20T01:35:42;59.17;;;40.00;;
3095;SDS011;1558;42.700;23.360;2023-03-20T01:38:12;52.47;;;37.70;;
3095;SDS011;1558;42.700;23.360;2023-03-20T01:40:45;51.57;;;36.50;;
3095;SDS011;1558;42.700;23.360;2023-03-20T01:43:18;46.73;;;35.37;;
3095;SDS011;1558;42.700;23.360;2023-03-20T01:45:49;47.13;;;35.03;;
3095;SDS011;1558;42.700;23.360;2023-03-20T01:48:24;47.00;;;34.73;;
3095;SDS011;1558;42.700;23.360;2023-03-20T01:51:02;47.50;;;35.03;;
3095;SDS011;1558;42.700;23.360;2023-03-20T01:53:30;44.67;;;35.20;;
3095;SDS011;1558;42.700;23.360;2023-03-20T01:55:59;56.17;;;37.73;;
3095;SDS011;1558;42.700;23.360;2023-03-20T01:58:29;53.40;;;36.80;;
3095;SDS011;1558;42.700;23.360;2023-03-20T02:01:02;49.97;;;36.80;;
3095;SDS011;1558;42.700;23.360;2023-03-20T02:03:32;50.47;;;37.43;;
3095;SDS011;1558;42.700;23.360;2023-03-20T02:06:00;54.10;;;37.47;;
3095;SDS011;1558;42.700;23.360;2023-03-20T02:08:28;52.33;;;38.40;;
3095;SDS011;1558;42.700;23.360;2023-03-20T02:10:59;50.20;;;37.80;;
3095;SDS011;1558;42.700;23.360;2023-03-20T02:13:29;50.77;;;37.03;;
3095;SDS011;1558;42.700;23.360;2023-03-20T02:16:00;59.27;;;40.30;;
3095;SDS011;1558;42.700;23.360;2023-03-20T02:18:30;54.97;;;40.33;;
3095;SDS011;1558;42.700;23.360;2023-03-20T02:24:11;51.47;;;36.17;;
3095;SDS011;1558;42.700;23.360;2023-03-20T02:27:06;49.10;;;37.27;;
3095;SDS011;1558;42.700;23.360;2023-03-20T02:39:06;43.87;;;32.80;;
3095;SDS011;1558;42.700;23.360;2023-03-20T02:41:45;45.50;;;33.40;;
3095;SDS011;1558;42.700;23.360;2023-03-20T02:44:20;43.10;;;30.83;;
3095;SDS011;1558;42.700;23.360;2023-03-20T02:46:59;42.70;;;31.30;;
3095;SDS011;1558;42.700;23.360;2023-03-20T02:49:41;34.77;;;26.87;;
3095;SDS011;1558;42.700;23.360;2023-03-20T02:52:23;38.67;;;28.93;;
3095;SDS011;1558;42.700;23.360;2023-03-20T02:55:03;42.37;;;29.83;;
3095;SDS011;1558;42.700;23.360;2023-03-20T02:57:43;36.93;;;26.73;;
3095;SDS011;1558;42.700;23.360;2023-03-20T03:00:20;43.57;;;31.03;;
3095;SDS011;1558;42.700;23.360;2023-03-20T03:02:56;39.17;;;29.60;;
3095;SDS011;1558;42.700;23.360;2023-03-20T03:05:35;41.77;;;31.13;;
3095;SDS011;1558;42.700;23.360;2023-03-20T03:08:04;39.93;;;30.60;;
3095;SDS011;1558;42.700;23.360;2023-03-20T03:10:38;38.93;;;31.10;;
3095;SDS011;1558;42.700;23.360;2023-03-20T03:13:11;44.20;;;32.67;;
3095;SDS011;1558;42.700;23.360;2023-03-20T03:15:42;46.10;;;32.53;;
3095;SDS011;1558;42.700;23.360;2023-03-20T03:18:14;45.30;;;32.73;;
3095;SDS011;1558;42.700;23.360;2023-03-20T03:20:45;48.13;;;34.60;;
3095;SDS011;1558;42.700;23.360;2023-03-20T03:23:18;44.87;;;33.50;;
3095;SDS011;1558;42.700;23.360;2023-03-20T03:25:53;46.70;;;33.67;;
3095;SDS011;1558;42.700;23.360;2023-03-20T03:28:25;45.10;;;32.23;;
3095;SDS011;1558;42.700;23.360;2023-03-20T03:30:56;47.97;;;34.20;;
3095;SDS011;1558;42.700;23.360;2023-03-20T03:33:26;39.43;;;30.10;;
3095;SDS011;1558;42.700;23.360;2023-03-20T03:35:58;41.30;;;31.60;;
3095;SDS011;1558;42.700;23.360;2023-03-20T03:38:37;40.93;;;29.23;;
3095;SDS011;1558;42.700;23.360;2023-03-20T03:41:15;41.60;;;29.40;;
3095;SDS011;1558;42.700;23.360;2023-03-20T03:43:50;44.53;;;30.30;;
3095;SDS011;1558;42.700;23.360;2023-03-20T03:46:24;43.50;;;30.90;;
3095;SDS011;1558;42.700;23.360;2023-03-20T03:49:01;49.53;;;33.33;;
3095;SDS011;1558;42.700;23.360;2023-03-20T03:51:31;52.07;;;29.43;;
3095;SDS011;1558;42.700;23.360;2023-03-20T03:54:02;44.80;;;31.50;;
3095;SDS011;1558;42.700;23.360;2023-03-20T03:56:39;39.17;;;27.00;;
3095;SDS011;1558;42.700;23.360;2023-03-20T03:59:12;36.60;;;25.37;;
3095;SDS011;1558;42.700;23.360;2023-03-20T04:01:44;41.47;;;28.37;;
3095;SDS011;1558;42.700;23.360;2023-03-20T04:04:13;49.83;;;32.13;;
3095;SDS011;1558;42.700;23.360;2023-03-20T04:06:42;48.77;;;29.07;;
3095;SDS011;1558;42.700;23.360;2023-03-20T04:09:10;44.83;;;30.10;;
3095;SDS011;1558;42.700;23.360;2023-03-20T04:11:39;39.87;;;28.53;;
3095;SDS011;1558;42.700;23.360;2023-03-20T04:14:07;40.97;;;30.17;;
3095;SDS011;1558;42.700;23.360;2023-03-20T04:16:35;51.53;;;36.30;;
3095;SDS011;1558;42.700;23.360;2023-03-20T04:19:03;58.30;;;39.53;;
3095;SDS011;1558;42.700;23.360;2023-03-20T04:21:31;58.40;;;41.30;;
3095;SDS011;1558;42.700;23.360;2023-03-20T04:23:59;65.97;;;42.60;;
3095;SDS011;1558;42.700;23.360;2023-03-20T04:26:26;67.87;;;47.67;;
3095;SDS011;1558;42.700;23.360;2023-03-20T04:28:56;72.17;;;50.77;;
3095;SDS011;1558;42.700;23.360;2023-03-20T04:31:24;76.50;;;55.20;;
3095;SDS011;1558;42.700;23.360;2023-03-20T04:33:52;75.57;;;56.47;;
3095;SDS011;1558;42.700;23.360;2023-03-20T04:36:20;75.47;;;55.70;;
3095;SDS011;1558;42.700;23.360;2023-03-20T04:38:47;55.43;;;41.83;;
3095;SDS011;1558;42.700;23.360;2023-03-20T04:41:16;66.43;;;45.13;;
3095;SDS011;1558;42.700;23.360;2023-03-20T04:43:46;46.77;;;36.27;;
3095;SDS011;1558;42.700;23.360;2023-03-20T04:46:17;48.50;;;35.17;;
3095;SDS011;1558;42.700;23.360;2023-03-20T04:48:45;59.57;;;40.17;;
3095;SDS011;1558;42.700;23.360;2023-03-20T04:51:13;56.17;;;41.03;;
3095;SDS011;1558;42.700;23.360;2023-03-20T04:53:41;58.97;;;41.87;;
3095;SDS011;1558;42.700;23.360;2023-03-20T04:56:10;60.67;;;43.10;;
3095;SDS011;1558;42.700;23.360;2023-03-20T04:58:46;58.83;;;42.17;;
3095;SDS011;1558;42.700;23.360;2023-03-20T05:01:20;53.87;;;39.30;;
3095;SDS011;1558;42.700;23.360;2023-03-20T05:03:48;51.27;;;38.23;;
3095;SDS011;1558;42.700;23.360;2023-03-20T05:06:17;57.53;;;41.33;;
3095;SDS011;1558;42.700;23.360;2023-03-20T05:08:48;56.87;;;42.60;;
3095;SDS011;1558;42.700;23.360;2023-03-20T05:11:20;53.33;;;40.03;;
3095;SDS011;1558;42.700;23.360;2023-03-20T05:13:50;55.00;;;41.67;;
3095;SDS011;1558;42.700;23.360;2023-03-20T05:16:19;52.30;;;39.63;;
3095;SDS011;1558;42.700;23.360;2023-03-20T05:18:47;51.87;;;38.37;;
3095;SDS011;1558;42.700;23.360;2023-03-20T05:21:15;54.90;;;42.33;;
3095;SDS011;1558;42.700;23.360;2023-03-20T05:23:43;48.70;;;35.00;;
3095;SDS011;1558;42.700;23.360;2023-03-20T05:26:11;53.00;;;38.97;;
3095;SDS011;1558;42.700;23.360;2023-03-20T05:28:39;43.20;;;31.87;;
3095;SDS011;1558;42.700;23.360;2023-03-20T05:31:07;53.10;;;36.40;;
3095;SDS011;1558;42.700;23.360;2023-03-20T05:33:36;36.20;;;26.80;;
3095;SDS011;1558;42.700;23.360;2023-03-20T05:36:05;33.30;;;24.47;;
3095;SDS011;1558;42.700;23.360;2023-03-20T05:38:34;31.50;;;21.20;;
3095;SDS011;1558;42.700;23.360;2023-03-20T05:41:02;28.60;;;20.90;;
3095;SDS011;1558;42.700;23.360;2023-03-20T05:43:31;33.07;;;24.80;;
3095;SDS011;1558;42.700;23.360;2023-03-20T05:45:58;38.60;;;26.13;;
3095;SDS011;1558;42.700;23.360;2023-03-20T05:48:27;36.27;;;26.33;;
3095;SDS011;1558;42.700;23.360;2023-03-20T05:50:57;36.77;;;25.43;;
3095;SDS011;1558;42.700;23.360;2023-03-20T05:53:25;37.93;;;22.73;;
3095;SDS011;1558;42.700;23.360;2023-03-20T05:55:54;25.90;;;19.93;;
3095;SDS011;1558;42.700;23.360;2023-03-20T05:58:25;28.07;;;19.50;;
3095;SDS011;1558;42.700;23.360;2023-03-20T06:00:56;23.37;;;20.13;;
3095;SDS011;1558;42.700;23.360;2023-03-20T06:03:39;25.10;;;18.33;;
3095;SDS011;1558;42.700;23.360;2023-03-20T06:10:07;25.27;;;16.47;;
3095;SDS011;1558;42.700;23.360;2023-03-20T06:13:00;22.03;;;17.03;;
3095;SDS011;1558;42.700;23.360;2023-03-20T06:15:28;23.90;;;17.80;;
3095;SDS011;1558;42.700;23.360;2023-03-20T06:17:58;25.17;;;17.83;;
3095;SDS011;1558;42.700;23.360;2023-03-20T06:20:34;24.10;;;17.30;;
3095;SDS011;1558;42.700;23.360;2023-03-20T06:23:04;23.93;;;18.77;;
3095;SDS011;1558;42.700;23.360;2023-03-20T06:25:37;19.17;;;16.53;;
3095;SDS011;1558;42.700;23.360;2023-03-20T06:28:06;20.60;;;16.43;;
3095;SDS011;1558;42.700;23.360;2023-03-20T06:30:34;22.17;;;16.00;;
3095;SDS011;1558;42.700;23.360;2023-03-20T06:33:05;21.33;;;15.47;;
3095;SDS011;1558;42.700;23.360;2023-03-20T06:35:49;21.57;;;17.87;;
3095;SDS011;1558;42.700;23.360;2023-03-20T06:38:25;22.20;;;15.77;;
3095;SDS011;1558;42.700;23.360;2023-03-20T06:41:32;26.07;;;18.50;;
3095;SDS011;1558;42.700;23.360;2023-03-20T06:44:01;25.37;;;18.37;;
3095;SDS011;1558;42.700;23.360;2023-03-20T06:46:30;22.80;;;17.27;;
3095;SDS011;1558;42.700;23.360;2023-03-20T06:48:58;21.20;;;17.50;;
3095;SDS011;1558;42.700;23.360;2023-03-20T06:51:29;23.90;;;17.10;;
3095;SDS011;1558;42.700;23.360;2023-03-20T06:53:58;24.77;;;19.43;;
3095;SDS011;1558;42.700;23.360;2023-03-20T06:56:26;35.30;;;20.43;;
3095;SDS011;1558;42.700;23.360;2023-03-20T06:58:55;23.07;;;18.83;;
3095;SDS011;1558;42.700;23.360;2023-03-20T07:01:23;25.90;;;20.57;;
3095;SDS011;1558;42.700;23.360;2023-03-20T07:03:51;25.90;;;21.33;;
3095;SDS011;1558;42.700;23.360;2023-03-20T07:06:20;28.47;;;22.47;;
3095;SDS011;1558;42.700;23.360;2023-03-20T07:08:48;28.60;;;23.27;;
3095;SDS011;1558;42.700;23.360;2023-03-20T07:11:16;30.33;;;25.03;;
3095;SDS011;1558;42.700;23.360;2023-03-20T07:13:45;32.10;;;26.80;;
3095;SDS011;1558;42.700;23.360;2023-03-20T07:16:16;32.40;;;27.83;;
3095;SDS011;1558;42.700;23.360;2023-03-20T07:18:44;31.17;;;25.90;;
3095;SDS011;1558;42.700;23.360;2023-03-20T07:21:13;33.13;;;27.97;;
3095;SDS011;1558;42.700;23.360;2023-03-20T07:23:45;33.53;;;26.13;;
3095;SDS011;1558;42.700;23.360;2023-03-20T07:26:13;34.53;;;26.20;;
3095;SDS011;1558;42.700;23.360;2023-03-20T07:28:41;30.97;;;25.10;;
3095;SDS011;1558;42.700;23.360;2023-03-20T07:31:10;30.80;;;25.93;;
3095;SDS011;1558;42.700;23.360;2023-03-20T07:33:48;37.73;;;26.80;;
3095;SDS011;1558;42.700;23.360;2023-03-20T07:36:17;32.40;;;27.40;;
3095;SDS011;1558;42.700;23.360;2023-03-20T07:38:45;33.67;;;26.37;;
3095;SDS011;1558;42.700;23.360;2023-03-20T07:41:12;32.90;;;24.53;;
3095;SDS011;1558;42.700;23.360;2023-03-20T07:43:41;30.93;;;24.43;;
3095;SDS011;1558;42.700;23.360;2023-03-20T07:46:10;26.33;;;23.60;;
3095;SDS011;1558;42.700;23.360;2023-03-20T07:48:39;32.03;;;24.40;;
3095;SDS011;1558;42.700;23.360;2023-03-20T07:51:07;27.87;;;23.77;;
3095;SDS011;1558;42.700;23.360;2023-03-20T07:53:35;25.50;;;22.80;;
3095;SDS011;1558;42.700;23.360;2023-03-20T07:56:04;24.98;;;22.33;;
3095;SDS011;1558;42.700;23.360;2023-03-20T07:58:35;26.38;;;23.00;;
3095;SDS011;1558;42.700;23.360;2023-03-20T08:01:03;26.50;;;20.58;;
3095;SDS011;1558;42.700;23.360;2023-03-20T08:03:32;21.70;;;18.05;;
3095;SDS011;1558;42.700;23.360;2023-03-20T08:06:01;17.65;;;15.85;;
3095;SDS011;1558;42.700;23.360;2023-03-20T08:08:32;18.73;;;16.67;;
3095;SDS011;1558;42.700;23.360;2023-03-20T08:11:00;20.15;;;17.55;;
3095;SDS011;1558;42.700;23.360;2023-03-20T08:13:29;17.52;;;15.57;;
3095;SDS011;1558;42.700;23.360;2023-03-20T08:15:57;18.50;;;15.65;;
3095;SDS011;1558;42.700;23.360;2023-03-20T08:18:25;20.00;;;16.35;;
3095;SDS011;1558;42.700;23.360;2023-03-20T08:20:53;16.95;;;15.23;;
3095;SDS011;1558;42.700;23.360;2023-03-20T08:23:22;18.77;;;15.55;;
3095;SDS011;1558;42.700;23.360;2023-03-20T08:25:51;19.65;;;17.38;;
3095;SDS011;1558;42.700;23.360;2023-03-20T08:28:20;20.52;;;17.17;;
3095;SDS011;1558;42.700;23.360;2023-03-20T08:31:09;20.02;;;17.20;;
3095;SDS011;1558;42.700;23.360;2023-03-20T08:33:37;20.17;;;18.17;;
3095;SDS011;1558;42.700;23.360;2023-03-20T08:36:05;22.23;;;18.23;;
3095;SDS011;1558;42.700;23.360;2023-03-20T08:38:36;21.40;;;18.98;;
3095;SDS011;1558;42.700;23.360;2023-03-20T08:41:05;19.83;;;15.35;;
3095;SDS011;1558;42.700;23.360;2023-03-20T08:43:33;18.08;;;16.33;;
3095;SDS011;1558;42.700;23.360;2023-03-20T08:46:01;18.35;;;16.25;;
3095;SDS011;1558;42.700;23.360;2023-03-20T08:48:30;17.00;;;15.32;;
3095;SDS011;1558;42.700;23.360;2023-03-20T08:50:58;24.80;;;20.90;;
3095;SDS011;1558;42.700;23.360;2023-03-20T08:53:27;15.10;;;13.75;;
3095;SDS011;1558;42.700;23.360;2023-03-20T08:55:56;16.38;;;14.68;;
3095;SDS011;1558;42.700;23.360;2023-03-20T08:58:24;16.55;;;12.88;;
3095;SDS011;1558;42.700;23.360;2023-03-20T09:00:52;12.70;;;11.35;;
3095;SDS011;1558;42.700;23.360;2023-03-20T09:03:20;13.93;;;11.45;;
3095;SDS011;1558;42.700;23.360;2023-03-20T09:05:49;13.75;;;12.18;;
3095;SDS011;1558;42.700;23.360;2023-03-20T09:08:18;13.90;;;11.02;;
3095;SDS011;1558;42.700;23.360;2023-03-20T09:10:46;12.80;;;11.50;;
3095;SDS011;1558;42.700;23.360;2023-03-20T09:13:19;13.00;;;10.32;;
3095;SDS011;1558;42.700;23.360;2023-03-20T09:15:53;13.60;;;11.75;;
3095;SDS011;1558;42.700;23.360;2023-03-20T09:18:22;12.65;;;11.18;;
3095;SDS011;1558;42.700;23.360;2023-03-20T09:20:50;28.23;;;17.80;;
3095;SDS011;1558;42.700;23.360;2023-03-20T09:23:19;13.68;;;11.90;;
3095;SDS011;1558;42.700;23.360;2023-03-20T09:25:47;15.50;;;11.90;;
3095;SDS011;1558;42.700;23.360;2023-03-20T09:28:15;12.75;;;11.27;;
3095;SDS011;1558;42.700;23.360;2023-03-20T09:30:44;15.23;;;13.00;;
3095;SDS011;1558;42.700;23.360;2023-03-20T09:33:12;12.25;;;10.90;;
3095;SDS011;1558;42.700;23.360;2023-03-20T09:35:40;13.63;;;12.00;;
3095;SDS011;1558;42.700;23.360;2023-03-20T09:38:09;12.52;;;11.27;;
3095;SDS011;1558;42.700;23.360;2023-03-20T09:40:42;14.07;;;11.50;;
3095;SDS011;1558;42.700;23.360;2023-03-20T09:43:20;13.48;;;11.25;;
3095;SDS011;1558;42.700;23.360;2023-03-20T09:45:58;12.65;;;11.23;;
3095;SDS011;1558;42.700;23.360;2023-03-20T09:48:39;13.07;;;11.77;;
3095;SDS011;1558;42.700;23.360;2023-03-20T09:51:13;13.88;;;12.48;;
3095;SDS011;1558;42.700;23.360;2023-03-20T09:53:48;15.57;;;12.80;;
3095;SDS011;1558;42.700;23.360;2023-03-20T09:56:26;14.35;;;12.05;;
3095;SDS011;1558;42.700;23.360;2023-03-20T09:58:57;15.73;;;12.77;;
3095;SDS011;1558;42.700;23.360;2023-03-20T10:01:30;13.65;;;12.23;;
3095;SDS011;1558;42.700;23.360;2023-03-20T10:04:05;18.95;;;12.77;;
3095;SDS011;1558;42.700;23.360;2023-03-20T10:06:36;17.23;;;13.43;;
3095;SDS011;1558;42.700;23.360;2023-03-20T10:09:11;18.38;;;15.15;;
3095;SDS011;1558;42.700;23.360;2023-03-20T10:11:58;14.32;;;12.75;;
3095;SDS011;1558;42.700;23.360;2023-03-20T10:14:44;15.68;;;13.02;;
3095;SDS011;1558;42.700;23.360;2023-03-20T10:17:23;14.95;;;12.90;;
3095;SDS011;1558;42.700;23.360;2023-03-20T10:20:00;17.27;;;11.98;;
3095;SDS011;1558;42.700;23.360;2023-03-20T10:22:39;15.18;;;12.45;;
3095;SDS011;1558;42.700;23.360;2023-03-20T10:25:17;14.05;;;12.18;;
3095;SDS011;1558;42.700;23.360;2023-03-20T10:27:51;15.50;;;12.55;;
3095;SDS011;1558;42.700;23.360;2023-03-20T10:30:26;30.05;;;14.80;;
3095;SDS011;1558;42.700;23.360;2023-03-20T10:33:05;24.13;;;14.40;;
3095;SDS011;1558;42.700;23.360;2023-03-20T10:35:48;18.52;;;14.35;;
3095;SDS011;1558;42.700;23.360;2023-03-20T10:38:31;16.77;;;13.95;;
3095;SDS011;1558;42.700;23.360;2023-03-20T10:41:08;16.60;;;12.55;;
3095;SDS011;1558;42.700;23.360;2023-03-20T10:43:41;14.80;;;13.18;;
3095;SDS011;1558;42.700;23.360;2023-03-20T10:46:11;16.25;;;13.20;;
3095;SDS011;1558;42.700;23.360;2023-03-20T10:48:45;17.92;;;15.38;;
3095;SDS011;1558;42.700;23.360;2023-03-20T10:51:16;20.45;;;15.55;;
3095;SDS011;1558;42.700;23.360;2023-03-20T10:53:47;16.40;;;12.80;;
3095;SDS011;1558;42.700;23.360;2023-03-20T10:56:20;15.18;;;13.32;;
3095;SDS011;1558;42.700;23.360;2023-03-20T10:58:56;17.08;;;13.63;;
3095;SDS011;1558;42.700;23.360;2023-03-20T11:01:28;15.27;;;13.70;;
3095;SDS011;1558;42.700;23.360;2023-03-20T11:04:01;15.70;;;13.93;;
3095;SDS011;1558;42.700;23.360;2023-03-20T11:06:29;16.45;;;13.55;;
3095;SDS011;1558;42.700;23.360;2023-03-20T11:09:07;15.40;;;13.85;;
3095;SDS011;1558;42.700;23.360;2023-03-20T11:11:38;14.10;;;12.80;;
3095;SDS011;1558;42.700;23.360;2023-03-20T11:14:15;14.82;;;13.30;;
3095;SDS011;1558;42.700;23.360;2023-03-20T11:16:52;16.92;;;13.38;;
3095;SDS011;1558;42.700;23.360;2023-03-20T11:19:38;15.55;;;13.95;;
3095;SDS011;1558;42.700;23.360;2023-03-20T11:22:22;13.55;;;12.23;;
3095;SDS011;1558;42.700;23.360;2023-03-20T11:25:27;14.38;;;12.88;;
3095;SDS011;1558;42.700;23.360;2023-03-20T11:28:29;14.13;;;12.32;;
3095;SDS011;1558;42.700;23.360;2023-03-20T11:31:15;17.45;;;13.15;;
3095;SDS011;1558;42.700;23.360;2023-03-20T11:34:06;19.55;;;12.57;;
3095;SDS011;1558;42.700;23.360;2023-03-20T11:36:54;15.50;;;12.48;;
3095;SDS011;1558;42.700;23.360;2023-03-20T11:39:38;15.63;;;11.82;;
3095;SDS011;1558;42.700;23.360;2023-03-20T11:42:39;13.50;;;11.18;;
3095;SDS011;1558;42.700;23.360;2023-03-20T11:45:32;12.38;;;9.82;;
3095;SDS011;1558;42.700;23.360;2023-03-20T11:48:14;27.58;;;12.07;;
3095;SDS011;1558;42.700;23.360;2023-03-20T11:50:56;14.32;;;11.05;;
3095;SDS011;1558;42.700;23.360;2023-03-20T11:53:30;15.70;;;10.98;;
3095;SDS011;1558;42.700;23.360;2023-03-20T11:56:04;13.35;;;8.88;;
3095;SDS011;1558;42.700;23.360;2023-03-20T11:58:48;13.10;;;9.90;;
3095;SDS011;1558;42.700;23.360;2023-03-20T12:01:39;12.98;;;10.07;;
3095;SDS011;1558;42.700;23.360;2023-03-20T12:04:19;14.32;;;10.57;;
3095;SDS011;1558;42.700;23.360;2023-03-20T12:07:05;10.98;;;9.27;;
3095;SDS011;1558;42.700;23.360;2023-03-20T12:09:54;11.20;;;9.40;;
3095;SDS011;1558;42.700;23.360;2023-03-20T12:12:35;13.52;;;9.32;;
3095;SDS011;1558;42.700;23.360;2023-03-20T12:15:09;17.45;;;8.23;;
3095;SDS011;1558;42.700;23.360;2023-03-20T12:17:49;17.73;;;9.57;;
3095;SDS011;1558;42.700;23.360;2023-03-20T12:20:23;10.23;;;7.07;;
3095;SDS011;1558;42.700;23.360;2023-03-20T12:23:01;10.27;;;8.02;;
3095;SDS011;1558;42.700;23.360;2023-03-20T12:25:39;10.75;;;8.93;;
3095;SDS011;1558;42.700;23.360;2023-03-20T12:28:16;10.70;;;8.55;;
3095;SDS011;1558;42.700;23.360;2023-03-20T12:30:53;8.15;;;6.80;;
3095;SDS011;1558;42.700;23.360;2023-03-20T12:33:33;9.02;;;5.95;;
3095;SDS011;1558;42.700;23.360;2023-03-20T12:36:10;7.63;;;6.90;;
3095;SDS011;1558;42.700;23.360;2023-03-20T12:38:41;10.93;;;5.30;;
3095;SDS011;1558;42.700;23.360;2023-03-20T12:41:13;8.60;;;5.25;;
3095;SDS011;1558;42.700;23.360;2023-03-20T12:43:48;12.32;;;6.82;;
3095;SDS011;1558;42.700;23.360;2023-03-20T12:46:32;6.15;;;4.63;;
3095;SDS011;1558;42.700;23.360;2023-03-20T12:49:10;7.97;;;4.97;;
3095;SDS011;1558;42.700;23.360;2023-03-20T12:51:49;11.23;;;5.35;;
3095;SDS011;1558;42.700;23.360;2023-03-20T12:54:32;5.82;;;4.90;;
3095;SDS011;1558;42.700;23.360;2023-03-20T12:57:11;6.97;;;5.18;;
3095;SDS011;1558;42.700;23.360;2023-03-20T12:59:55;7.05;;;4.95;;
3095;SDS011;1558;42.700;23.360;2023-03-20T13:02:42;9.20;;;5.07;;
3095;SDS011;1558;42.700;23.360;2023-03-20T13:05:19;7.72;;;5.82;;
3095;SDS011;1558;42.700;23.360;2023-03-20T13:08:02;9.20;;;5.47;;
3095;SDS011;1558;42.700;23.360;2023-03-20T13:10:46;12.00;;;8.98;;
3095;SDS011;1558;42.700;23.360;2023-03-20T13:13:25;5.88;;;4.25;;
3095;SDS011;1558;42.700;23.360;2023-03-20T13:16:01;7.95;;;5.50;;
3095;SDS011;1558;42.700;23.360;2023-03-20T13:18:44;6.75;;;4.75;;
3095;SDS011;1558;42.700;23.360;2023-03-20T13:21:22;6.43;;;4.65;;
3095;SDS011;1558;42.700;23.360;2023-03-20T13:23:56;10.10;;;5.25;;
3095;SDS011;1558;42.700;23.360;2023-03-20T13:26:33;12.88;;;7.80;;
3095;SDS011;1558;42.700;23.360;2023-03-20T13:29:07;6.93;;;5.28;;
3095;SDS011;1558;42.700;23.360;2023-03-20T13:31:44;8.07;;;4.68;;
3095;SDS011;1558;42.700;23.360;2023-03-20T13:34:22;5.93;;;5.22;;
3095;SDS011;1558;42.700;23.360;2023-03-20T13:37:00;5.45;;;4.30;;
3095;SDS011;1558;42.700;23.360;2023-03-20T13:39:57;7.68;;;6.18;;
3095;SDS011;1558;42.700;23.360;2023-03-20T13:42:32;7.13;;;6.43;;
3095;SDS011;1558;42.700;23.360;2023-03-20T13:45:11;6.38;;;5.43;;
3095;SDS011;1558;42.700;23.360;2023-03-20T13:47:57;9.55;;;6.25;;
3095;SDS011;1558;42.700;23.360;2023-03-20T13:50:36;6.65;;;5.07;;
3095;SDS011;1558;42.700;23.360;2023-03-20T13:53:12;14.77;;;5.40;;
3095;SDS011;1558;42.700;23.360;2023-03-20T13:55:51;7.28;;;4.30;;
3095;SDS011;1558;42.700;23.360;2023-03-20T13:58:33;8.70;;;6.72;;
3095;SDS011;1558;42.700;23.360;2023-03-20T14:01:24;6.75;;;3.72;;
3095;SDS011;1558;42.700;23.360;2023-03-20T14:04:01;8.45;;;3.70;;
3095;SDS011;1558;42.700;23.360;2023-03-20T14:09:23;22.27;;;5.28;;
3095;SDS011;1558;42.700;23.360;2023-03-20T14:11:58;7.38;;;4.95;;
3095;SDS011;1558;42.700;23.360;2023-03-20T14:14:29;6.07;;;4.50;;
3095;SDS011;1558;42.700;23.360;2023-03-20T14:17:01;8.75;;;6.07;;
3095;SDS011;1558;42.700;23.360;2023-03-20T14:19:34;9.55;;;5.70;;
3095;SDS011;1558;42.700;23.360;2023-03-20T14:22:04;8.98;;;4.93;;
3095;SDS011;1558;42.700;23.360;2023-03-20T14:24:34;9.38;;;5.30;;
3095;SDS011;1558;42.700;23.360;2023-03-20T14:27:03;18.35;;;11.77;;
3095;SDS011;1558;42.700;23.360;2023-03-20T14:29:36;13.65;;;7.68;;
3095;SDS011;1558;42.700;23.360;2023-03-20T14:35:17;9.20;;;5.63;;
3095;SDS011;1558;42.700;23.360;2023-03-20T14:38:02;5.43;;;4.63;;
3095;SDS011;1558;42.700;23.360;2023-03-20T14:40:46;7.88;;;7.00;;
3095;SDS011;1558;42.700;23.360;2023-03-20T14:43:23;5.25;;;4.50;;
3095;SDS011;1558;42.700;23.360;2023-03-20T14:46:05;4.82;;;4.25;;
3095;SDS011;1558;42.700;23.360;2023-03-20T14:48:44;5.07;;;4.57;;
3095;SDS011;1558;42.700;23.360;2023-03-20T14:51:20;6.25;;;5.45;;
3095;SDS011;1558;42.700;23.360;2023-03-20T14:53:55;6.80;;;5.03;;
3095;SDS011;1558;42.700;23.360;2023-03-20T14:56:24;10.48;;;4.43;;
3095;SDS011;1558;42.700;23.360;2023-03-20T14:58:56;5.32;;;4.20;;
3095;SDS011;1558;42.700;23.360;2023-03-20T15:01:44;5.30;;;4.10;;
3095;SDS011;1558;42.700;23.360;2023-03-20T15:04:20;5.28;;;3.80;;
3095;SDS011;1558;42.700;23.360;2023-03-20T15:06:56;8.77;;;4.38;;
3095;SDS011;1558;42.700;23.360;2023-03-20T15:09:27;6.47;;;4.95;;
3095;SDS011;1558;42.700;23.360;2023-03-20T15:11:58;7.22;;;3.47;;
3095;SDS011;1558;42.700;23.360;2023-03-20T15:14:31;5.03;;;3.50;;
3095;SDS011;1558;42.700;23.360;2023-03-20T15:17:14;4.90;;;3.80;;
3095;SDS011;1558;42.700;23.360;2023-03-20T15:19:45;9.10;;;4.10;;
3095;SDS011;1558;42.700;23.360;2023-03-20T15:22:16;11.90;;;4.15;;
3095;SDS011;1558;42.700;23.360;2023-03-20T15:24:52;9.75;;;4.40;;
3095;SDS011;1558;42.700;23.360;2023-03-20T15:27:21;15.88;;;5.90;;
3095;SDS011;1558;42.700;23.360;2023-03-20T15:29:55;12.50;;;4.53;;
3095;SDS011;1558;42.700;23.360;2023-03-20T15:32:23;11.63;;;4.75;;
3095;SDS011;1558;42.700;23.360;2023-03-20T15:34:53;8.90;;;4.55;;
3095;SDS011;1558;42.700;23.360;2023-03-20T15:37:22;6.05;;;4.03;;
3095;SDS011;1558;42.700;23.360;2023-03-20T15:39:52;5.75;;;4.25;;
3095;SDS011;1558;42.700;23.360;2023-03-20T15:42:22;8.38;;;4.13;;
3095;SDS011;1558;42.700;23.360;2023-03-20T15:44:53;10.00;;;4.88;;